Aviation Digital Data Service (ADDS)

Output produced by TAFs form (0750 UTC 23 April 2018)
found at http://aviationweather.gov/adds/tafs/
 
METAR text: RJAW 230728Z 10015KT 9999 FEW020 SCT040 24/18 Q1015 RMK 1CU020 4SC040 A2999
Conditions at: RJAW (IWOJIMA (JMSDF) , JP) observed 0728 UTC 23 April 2018
Temperature: 24.0°C (75°F)
Dewpoint: 18.0°C (64°F) [RH = 69%]
Pressure (altimeter): 29.97 inches Hg (1015.0 mb)
Winds: from the E (100 degrees) at 17 MPH (15 knots; 7.8 m/s)
Visibility: 6 or more miles (10+ km)
Ceiling: at least 12,000 feet AGL
Clouds: few clouds at 2000 feet AGL
scattered clouds at 4000 feet AGL
Weather: no significant weather observed at this time